Time;durP1;ratioP1;P1;durP2;ratioP2;P2;SDS_P1;SDS_P2;PMS_P1;PMS_P2;Temp;Humidity;BMP_temperature;BMP_pressure;BME280_temperature;BME280_humidity;BME280_pressure;Samples;Min_cycle;Max_cycle;Signal;HPM_P1;HPM_P2
2022/11/15 00:00:27;;;;;;;7.20;5.32;;;10.00;99.90;;;;;;4974394;28;20109;-83
2022/11/15 00:02:53;;;;;;;9.50;6.00;;;10.10;99.90;;;;;;4963618;28;20085;-83
2022/11/15 00:05:19;;;;;;;8.98;5.72;;;10.10;99.90;;;;;;4936885;28;20449;-83
2022/11/15 00:07:44;;;;;;;9.43;6.18;;;10.10;99.90;;;;;;4948529;28;20053;-83
2022/11/15 00:10:10;;;;;;;10.15;6.38;;;10.10;99.90;;;;;;4935405;28;20027;-83
2022/11/15 00:12:44;;;;;;;11.77;5.75;;;10.20;99.90;;;;;;4968169;28;20043;-82
2022/11/15 00:15:10;;;;;;;8.32;5.63;;;10.20;99.90;;;;;;4937032;28;20043;-83
2022/11/15 00:17:35;;;;;;;8.48;6.03;;;10.30;99.90;;;;;;4950265;28;20078;-82
2022/11/15 00:20:01;;;;;;;8.52;6.68;;;10.30;99.90;;;;;;4949197;28;20052;-83
2022/11/15 00:22:32;;;;;;;12.13;6.70;;;10.30;99.90;;;;;;4945364;28;20035;-83
2022/11/15 00:24:58;;;;;;;8.20;5.97;;;10.40;99.90;;;;;;4972915;28;20034;-83
2022/11/15 00:27:24;;;;;;;9.68;5.85;;;10.40;99.90;;;;;;4928106;28;20031;-82
2022/11/15 00:29:49;;;;;;;9.65;5.70;;;10.40;99.90;;;;;;4935972;28;20034;-83
2022/11/15 00:32:22;;;;;;;8.20;5.50;;;10.40;99.90;;;;;;4962228;28;20046;-81
2022/11/15 00:34:47;;;;;;;10.65;6.40;;;10.50;99.90;;;;;;4956785;28;20042;-83
2022/11/15 00:37:13;;;;;;;9.10;5.50;;;10.50;99.90;;;;;;4948917;28;20126;-83
2022/11/15 00:39:38;;;;;;;7.47;6.05;;;10.60;99.90;;;;;;4927899;28;20043;-83
2022/11/15 00:42:04;;;;;;;13.70;6.93;;;10.60;99.90;;;;;;4931896;28;20026;-83
2022/11/15 00:44:29;;;;;;;8.18;6.28;;;10.60;99.90;;;;;;4962753;28;20372;-83
2022/11/15 00:46:55;;;;;;;9.75;5.45;;;10.60;99.90;;;;;;4980030;28;20652;-83
2022/11/15 00:49:20;;;;;;;9.55;6.00;;;10.70;99.90;;;;;;4950055;28;20486;-83
2022/11/15 00:51:46;;;;;;;9.40;6.25;;;10.70;99.90;;;;;;4936812;28;20102;-83
2022/11/15 00:54:11;;;;;;;9.63;6.13;;;10.70;99.90;;;;;;4935003;28;20651;-83
2022/11/15 00:56:39;;;;;;;10.18;5.68;;;10.70;99.90;;;;;;4949100;28;20027;-83
2022/11/15 00:59:05;;;;;;;12.18;6.65;;;10.80;99.90;;;;;;4967892;28;20031;-83
2022/11/15 01:01:30;;;;;;;9.00;4.45;;;10.80;99.90;;;;;;4947835;28;20107;-84
2022/11/15 01:03:56;;;;;;;9.30;5.18;;;10.80;99.90;;;;;;4949875;28;21220;-84
2022/11/15 01:06:21;;;;;;;8.98;5.32;;;10.90;99.90;;;;;;4946460;28;20054;-83
2022/11/15 01:08:47;;;;;;;9.48;5.72;;;10.80;99.90;;;;;;4947216;28;20047;-84
2022/11/15 01:11:12;;;;;;;10.40;5.97;;;10.90;99.90;;;;;;4946098;28;20037;-83
2022/11/15 01:13:39;;;;;;;8.77;6.47;;;10.90;99.90;;;;;;4947877;28;20046;-83
2022/11/15 01:16:07;;;;;;;13.75;6.35;;;10.90;99.90;;;;;;4935581;28;20035;-83
2022/11/15 01:18:33;;;;;;;11.05;6.10;;;10.90;99.90;;;;;;4965090;28;20027;-83
2022/11/15 01:20:58;;;;;;;8.52;4.20;;;11.00;99.90;;;;;;4963684;28;20494;-83
2022/11/15 01:23:24;;;;;;;9.52;5.70;;;10.90;99.90;;;;;;4949721;28;20035;-83
2022/11/15 01:25:49;;;;;;;11.50;6.25;;;10.90;99.90;;;;;;4934018;28;20039;-83
2022/11/15 01:28:15;;;;;;;7.53;5.05;;;11.00;99.90;;;;;;4947095;28;20460;-83
2022/11/15 01:30:41;;;;;;;5.53;4.47;;;11.10;99.90;;;;;;4948874;28;20579;-83
2022/11/15 01:33:07;;;;;;;7.45;5.30;;;11.00;99.90;;;;;;4959315;28;20038;-84
2022/11/15 01:35:38;;;;;;;8.20;4.72;;;11.10;99.90;;;;;;4951691;28;20106;-84
2022/11/15 01:38:03;;;;;;;8.00;5.60;;;11.10;99.90;;;;;;4961238;28;20693;-83
2022/11/15 01:40:29;;;;;;;6.40;4.55;;;11.10;99.90;;;;;;4932050;28;20031;-84
2022/11/15 01:42:54;;;;;;;9.25;5.38;;;11.10;99.90;;;;;;4949671;28;20118;-83
2022/11/15 01:45:20;;;;;;;10.88;6.25;;;11.10;99.90;;;;;;4953510;28;20118;-83
2022/11/15 01:47:48;;;;;;;10.40;5.85;;;11.10;99.90;;;;;;4950559;28;20015;-83
2022/11/15 01:50:21;;;;;;;8.88;5.13;;;11.00;99.90;;;;;;4960364;28;20035;-83
2022/11/15 01:52:46;;;;;;;7.97;5.55;;;11.00;99.90;;;;;;4951311;28;20122;-83
2022/11/15 01:55:17;;;;;;;11.45;5.38;;;11.10;99.90;;;;;;4939362;28;20114;-83
2022/11/15 01:57:42;;;;;;;8.27;4.43;;;11.10;99.90;;;;;;4967440;28;20027;-83
2022/11/15 02:00:09;;;;;;;7.75;5.43;;;11.10;99.90;;;;;;4948192;28;20517;-83
2022/11/15 02:02:34;;;;;;;9.68;5.07;;;11.10;99.90;;;;;;4917525;28;20095;-84
2022/11/15 02:05:00;;;;;;;7.68;5.10;;;11.10;99.90;;;;;;4954768;28;20864;-84
2022/11/15 02:07:25;;;;;;;10.75;4.70;;;11.10;99.90;;;;;;4982085;28;20042;-83
2022/11/15 02:09:51;;;;;;;12.00;6.00;;;11.10;99.90;;;;;;4963500;28;20498;-83
2022/11/15 02:12:24;;;;;;;15.43;5.85;;;11.20;99.90;;;;;;4950859;28;20031;-83
2022/11/15 02:14:52;;;;;;;6.45;4.25;;;11.20;99.90;;;;;;4933361;28;20039;-83
2022/11/15 02:17:39;;;;;;;8.43;4.28;;;11.20;99.90;;;;;;4963002;28;20033;-83
2022/11/15 02:20:13;;;;;;;6.25;4.30;;;11.20;99.90;;;;;;4959873;28;20034;-84
2022/11/15 02:23:04;;;;;;;6.40;4.43;;;11.20;99.90;;;;;;4948265;28;20094;-83
2022/11/15 02:25:33;;;;;;;9.45;6.07;;;11.20;99.90;;;;;;4964857;28;20490;-83
2022/11/15 02:28:06;;;;;;;6.00;5.07;;;11.20;99.90;;;;;;4953395;28;20035;-84
2022/11/15 02:30:40;;;;;;;8.57;5.45;;;11.30;99.90;;;;;;4948600;28;20045;-83
2022/11/15 02:33:27;;;;;;;6.45;4.78;;;11.30;99.90;;;;;;4982397;28;20781;-84
2022/11/15 02:36:19;;;;;;;11.05;4.97;;;11.30;99.90;;;;;;4952472;28;21149;-84
2022/11/15 02:38:49;;;;;;;7.30;5.30;;;11.40;99.90;;;;;;4910401;28;20495;-84
2022/11/15 02:41:17;;;;;;;6.85;4.80;;;11.20;99.90;;;;;;4946650;28;20132;-83
2022/11/15 02:44:04;;;;;;;9.07;6.07;;;11.20;99.90;;;;;;4937959;28;20551;-83
2022/11/15 02:49:28;;;;;;;6.55;5.15;;;11.20;99.90;;;;;;4952318;28;20045;-84
2022/11/15 02:51:54;;;;;;;9.35;5.65;;;11.20;99.90;;;;;;4938333;28;20039;-85
2022/11/15 02:54:29;;;;;;;8.40;6.05;;;11.30;99.90;;;;;;4972737;28;20103;-85
2022/11/15 02:56:57;;;;;;;10.90;5.68;;;11.10;99.90;;;;;;4972299;28;20045;-84
2022/11/15 02:59:47;;;;;;;12.38;6.40;;;11.20;99.90;;;;;;4972577;28;20038;-85
2022/11/15 03:02:27;;;;;;;9.15;6.38;;;11.20;99.90;;;;;;4954964;28;20478;-84
2022/11/15 03:04:55;;;;;;;9.88;6.82;;;11.20;99.90;;;;;;4980384;28;20040;-84
2022/11/15 03:07:31;;;;;;;9.43;5.65;;;11.20;99.90;;;;;;4952695;28;20600;-84
2022/11/15 03:10:05;;;;;;;8.40;6.30;;;11.20;99.90;;;;;;4963948;28;20122;-85
2022/11/15 03:12:52;;;;;;;8.23;5.57;;;11.30;99.90;;;;;;4970725;28;20046;-84
2022/11/15 03:15:23;;;;;;;10.20;5.95;;;11.30;99.90;;;;;;4956096;28;20031;-85
2022/11/15 03:17:52;;;;;;;8.57;5.80;;;11.30;99.90;;;;;;4966569;28;20046;-85
2022/11/15 03:20:18;;;;;;;10.30;6.03;;;11.30;99.90;;;;;;4947277;28;20035;-85
2022/11/15 03:22:44;;;;;;;10.38;7.22;;;11.30;99.90;;;;;;4954363;28;20158;-85
2022/11/15 03:25:11;;;;;;;9.82;5.85;;;11.40;99.90;;;;;;4949123;28;20031;-84
2022/11/15 03:27:39;;;;;;;8.02;5.22;;;11.40;99.90;;;;;;4935319;28;20031;-84
2022/11/15 03:30:06;;;;;;;7.10;4.97;;;11.40;99.90;;;;;;4950049;28;20026;-85
2022/11/15 03:32:34;;;;;;;9.85;6.60;;;11.40;99.90;;;;;;4950802;28;20513;-85
2022/11/15 03:35:04;;;;;;;10.02;6.25;;;11.50;99.90;;;;;;4980357;28;20432;-85
2022/11/15 03:37:37;;;;;;;7.75;5.70;;;11.40;99.90;;;;;;4948768;28;20045;-84
2022/11/15 03:40:03;;;;;;;8.02;4.97;;;11.50;99.90;;;;;;4952103;28;20119;-84
2022/11/15 03:42:51;;;;;;;7.95;4.47;;;11.50;99.90;;;;;;4952664;28;20118;-85
2022/11/15 03:45:40;;;;;;;11.10;6.10;;;11.50;99.90;;;;;;4953130;28;20027;-85
2022/11/15 03:48:12;;;;;;;9.10;5.45;;;11.50;99.90;;;;;;4951444;28;20089;-85
2022/11/15 03:50:41;;;;;;;8.98;5.25;;;11.50;99.90;;;;;;4929027;28;20487;-85
2022/11/15 03:53:06;;;;;;;9.98;6.15;;;11.50;99.90;;;;;;4930444;28;20047;-85
2022/11/15 03:55:32;;;;;;;8.18;5.35;;;11.60;99.90;;;;;;4958420;28;20030;-82
2022/11/15 03:57:58;;;;;;;7.70;4.97;;;11.60;99.90;;;;;;4951220;28;20102;-81
2022/11/15 04:00:24;;;;;;;8.82;5.20;;;11.50;99.90;;;;;;4964905;28;20039;-82
2022/11/15 04:02:49;;;;;;;8.32;5.50;;;11.60;99.90;;;;;;4943242;28;20035;-81
2022/11/15 04:05:15;;;;;;;7.80;5.05;;;11.60;99.90;;;;;;4932789;28;20053;-81
2022/11/15 04:07:41;;;;;;;7.55;5.75;;;11.60;99.90;;;;;;4949266;28;20039;-81
2022/11/15 04:10:07;;;;;;;10.93;5.95;;;11.60;99.90;;;;;;4948374;28;20049;-81
2022/11/15 04:12:43;;;;;;;6.47;5.18;;;11.60;99.90;;;;;;4947281;28;20049;-81
2022/11/15 04:15:10;;;;;;;;;;;11.60;99.90;;;;;;4947754;28;20383;-81
2022/11/15 04:17:46;;;;;;;10.02;5.93;;;11.60;99.90;;;;;;4967784;28;19961;-81
2022/11/15 04:25:44;;;;;;;8.65;5.25;;;11.60;99.90;;;;;;4945158;28;20441;-81
2022/11/15 04:28:10;;;;;;;7.18;5.35;;;11.70;99.90;;;;;;4940683;28;20035;-81
2022/11/15 04:30:35;;;;;;;7.90;4.72;;;11.70;99.90;;;;;;4948239;28;20039;-82
2022/11/15 04:33:03;;;;;;;7.05;4.72;;;11.70;99.90;;;;;;4950985;28;20031;-81
2022/11/15 04:35:29;;;;;;;10.15;5.20;;;11.70;99.90;;;;;;4947310;28;20027;-81
2022/11/15 04:37:55;;;;;;;7.25;4.70;;;11.70;99.90;;;;;;4964502;28;20039;-81
2022/11/15 04:40:21;;;;;;;8.48;4.95;;;11.70;99.90;;;;;;4940779;28;20142;-82
2022/11/15 04:42:46;;;;;;;5.88;4.30;;;11.70;99.90;;;;;;4921699;28;20232;-82
2022/11/15 04:45:12;;;;;;;9.73;5.32;;;11.90;99.90;;;;;;4952674;28;20041;-82
2022/11/15 04:47:37;;;;;;;7.20;5.28;;;11.70;99.90;;;;;;4968759;28;20030;-80
2022/11/15 04:50:03;;;;;;;7.55;4.90;;;11.70;99.90;;;;;;4958576;28;20030;-81
2022/11/15 04:52:29;;;;;;;6.60;4.32;;;11.80;99.90;;;;;;4983194;28;20027;-81
2022/11/15 04:54:54;;;;;;;6.80;4.93;;;11.80;99.90;;;;;;4981628;28;20580;-82
2022/11/15 04:57:20;;;;;;;8.00;5.18;;;11.80;99.90;;;;;;4934919;28;20482;-81
2022/11/15 04:59:46;;;;;;;6.13;4.88;;;11.80;99.90;;;;;;4967426;28;20386;-83
2022/11/15 05:02:11;;;;;;;5.63;4.35;;;11.70;99.90;;;;;;4953591;28;20189;-81
2022/11/15 05:04:37;;;;;;;4.90;4.32;;;11.70;99.90;;;;;;4953490;28;20082;-81
2022/11/15 05:07:05;;;;;;;6.53;4.85;;;11.80;99.90;;;;;;4950925;28;20027;-82
2022/11/15 05:09:31;;;;;;;5.30;4.57;;;11.80;99.90;;;;;;4937849;28;20409;-82
2022/11/15 05:11:56;;;;;;;6.72;4.88;;;11.80;99.90;;;;;;4952476;28;20026;-82
2022/11/15 05:14:22;;;;;;;6.20;4.88;;;11.70;99.90;;;;;;4967419;28;20459;-82
2022/11/15 05:16:48;;;;;;;4.97;4.47;;;11.80;99.90;;;;;;4932684;28;20427;-82
2022/11/15 05:19:13;;;;;;;5.90;4.15;;;11.80;99.90;;;;;;4952522;28;20387;-82
2022/11/15 05:21:39;;;;;;;6.88;4.55;;;11.70;99.90;;;;;;4962221;28;20154;-82
2022/11/15 05:24:05;;;;;;;8.15;5.93;;;11.80;99.90;;;;;;4930388;28;20031;-82
2022/11/15 05:26:30;;;;;;;6.57;4.75;;;11.70;99.90;;;;;;4933677;28;20390;-82
2022/11/15 05:28:57;;;;;;;8.32;5.47;;;11.80;99.90;;;;;;4915618;28;20070;-82
2022/11/15 05:31:22;;;;;;;9.05;5.53;;;11.80;99.90;;;;;;4965213;28;20054;-83
2022/11/15 05:33:49;;;;;;;8.32;5.93;;;11.70;99.90;;;;;;4934153;28;20043;-82
2022/11/15 05:36:33;;;;;;;7.90;5.38;;;11.70;99.90;;;;;;4945814;28;20560;-82
2022/11/15 05:38:59;;;;;;;8.07;6.32;;;11.70;99.90;;;;;;4964121;28;20089;-82
2022/11/15 05:41:33;;;;;;;9.40;6.63;;;11.70;99.90;;;;;;4949295;28;20039;-82
2022/11/15 05:44:00;;;;;;;8.27;5.55;;;11.70;99.90;;;;;;4960471;28;20035;-83
2022/11/15 05:46:25;;;;;;;6.85;5.18;;;11.70;99.90;;;;;;4948215;28;20126;-81
2022/11/15 05:48:52;;;;;;;11.50;5.15;;;11.70;99.90;;;;;;4958477;28;20158;-82
2022/11/15 05:51:17;;;;;;;6.38;5.07;;;11.60;99.90;;;;;;4946393;28;20035;-82
2022/11/15 05:53:43;;;;;;;7.72;5.47;;;11.70;99.90;;;;;;4933732;28;20042;-83
2022/11/15 05:56:08;;;;;;;9.25;6.82;;;11.70;99.90;;;;;;4951507;28;20031;-83
2022/11/15 05:58:34;;;;;;;8.75;5.63;;;11.60;99.90;;;;;;4956639;28;20227;-83
2022/11/15 06:00:59;;;;;;;9.00;5.88;;;11.60;99.90;;;;;;4937215;28;20035;-83
2022/11/15 06:03:25;;;;;;;8.40;5.63;;;11.60;99.90;;;;;;4939168;28;20031;-84
2022/11/15 06:05:50;;;;;;;6.80;5.47;;;11.60;99.90;;;;;;4954067;28;20509;-83
2022/11/15 06:08:16;;;;;;;7.22;5.55;;;11.60;99.90;;;;;;4938397;28;20046;-83
2022/11/15 06:10:41;;;;;;;7.63;6.32;;;11.70;99.90;;;;;;4937900;28;20033;-83
2022/11/15 06:13:07;;;;;;;7.30;5.55;;;11.70;99.90;;;;;;4937218;28;20035;-82
2022/11/15 06:15:34;;;;;;;6.28;5.35;;;11.60;99.90;;;;;;4951641;28;20027;-82
2022/11/15 06:17:59;;;;;;;7.78;5.35;;;11.60;99.90;;;;;;4964004;28;20121;-82
2022/11/15 06:20:26;;;;;;;9.48;4.70;;;11.60;99.90;;;;;;4947832;28;20107;-82
2022/11/15 06:22:58;;;;;;;6.63;4.95;;;11.60;99.90;;;;;;4936935;28;20069;-81
2022/11/15 06:25:26;;;;;;;5.18;4.57;;;11.60;99.90;;;;;;4983363;28;20038;-82
2022/11/15 06:27:52;;;;;;;5.90;4.45;;;11.60;99.90;;;;;;4981805;28;20024;-81
2022/11/15 06:30:18;;;;;;;5.97;5.18;;;11.60;99.90;;;;;;4980842;28;20118;-81
2022/11/15 06:32:44;;;;;;;6.38;4.22;;;11.60;99.90;;;;;;4977804;28;20106;-83
2022/11/15 06:35:09;;;;;;;6.95;4.97;;;11.60;99.90;;;;;;4937668;28;20438;-83
2022/11/15 06:37:35;;;;;;;5.15;4.35;;;11.60;99.90;;;;;;4984039;28;20031;-83
2022/11/15 06:40:00;;;;;;;5.38;4.75;;;11.60;99.90;;;;;;4939092;28;20031;-84
2022/11/15 06:42:26;;;;;;;5.07;3.92;;;11.60;99.90;;;;;;4934288;28;20023;-84
2022/11/15 06:44:51;;;;;;;4.90;4.40;;;11.60;99.90;;;;;;4956248;28;20023;-84
2022/11/15 06:47:17;;;;;;;4.50;4.10;;;11.60;99.90;;;;;;4949080;28;20019;-84
2022/11/15 06:49:43;;;;;;;6.00;4.28;;;11.60;99.90;;;;;;4951463;28;20497;-84
2022/11/15 06:52:08;;;;;;;4.22;3.72;;;11.70;99.90;;;;;;4934645;28;20094;-83
2022/11/15 06:54:34;;;;;;;4.63;3.65;;;11.60;99.90;;;;;;4964083;28;20051;-84
2022/11/15 06:56:59;;;;;;;4.90;3.42;;;11.70;99.90;;;;;;4969983;28;20031;-84
2022/11/15 06:59:25;;;;;;;3.88;3.33;;;11.80;99.90;;;;;;4920746;28;20570;-83
2022/11/15 07:01:50;;;;;;;5.18;3.60;;;11.70;99.90;;;;;;4961616;28;20360;-84
2022/11/15 07:04:16;;;;;;;4.75;3.80;;;11.70;99.90;;;;;;4933460;28;20054;-84
2022/11/15 07:06:41;;;;;;;5.20;3.90;;;11.70;99.90;;;;;;4966563;28;20067;-84
2022/11/15 07:09:07;;;;;;;6.78;3.58;;;11.70;99.90;;;;;;4962053;28;20402;-84
2022/11/15 07:11:33;;;;;;;3.92;2.40;;;11.70;99.90;;;;;;4966694;28;20743;-84
2022/11/15 07:13:59;;;;;;;4.40;3.13;;;11.70;99.90;;;;;;4947036;28;20119;-84
2022/11/15 07:16:25;;;;;;;5.40;3.35;;;11.70;99.90;;;;;;4962340;28;20051;-84
2022/11/15 07:18:50;;;;;;;4.95;3.53;;;11.70;99.90;;;;;;4964920;28;20339;-84
2022/11/15 07:21:22;;;;;;;3.53;2.83;;;11.70;99.90;;;;;;4968990;28;20385;-84
2022/11/15 07:24:06;;;;;;;4.30;3.20;;;11.70;99.90;;;;;;4954221;28;20042;-85
2022/11/15 07:26:31;;;;;;;3.08;2.30;;;11.70;99.90;;;;;;4919325;28;20045;-84
2022/11/15 07:28:57;;;;;;;4.72;3.17;;;11.60;99.90;;;;;;4944964;28;20113;-83
2022/11/15 07:31:23;;;;;;;3.20;2.60;;;11.70;99.90;;;;;;4966122;28;20050;-84
2022/11/15 07:33:48;;;;;;;3.50;2.50;;;11.60;99.90;;;;;;4946763;28;20515;-84
2022/11/15 07:36:14;;;;;;;4.97;2.90;;;11.70;99.90;;;;;;4936104;28;20117;-85
2022/11/15 07:38:39;;;;;;;2.55;1.95;;;11.70;99.90;;;;;;4959365;28;20134;-84
2022/11/15 07:41:06;;;;;;;2.70;2.40;;;11.70;99.90;;;;;;4955128;28;20037;-84
2022/11/15 07:43:33;;;;;;;2.67;2.20;;;11.70;99.90;;;;;;4940550;28;20054;-84
2022/11/15 07:45:59;;;;;;;3.28;2.80;;;11.70;99.90;;;;;;4969112;28;20039;-84
2022/11/15 07:48:26;;;;;;;2.70;2.38;;;11.70;99.90;;;;;;4957752;28;20086;-84
2022/11/15 07:50:51;;;;;;;6.00;2.40;;;11.70;99.90;;;;;;4959720;28;20045;-84
2022/11/15 07:53:17;;;;;;;3.80;2.30;;;11.70;99.90;;;;;;4959258;28;20031;-84
2022/11/15 07:55:42;;;;;;;3.85;2.10;;;11.60;99.90;;;;;;4956483;28;20027;-85
2022/11/15 07:58:10;;;;;;;2.90;2.22;;;11.70;99.90;;;;;;4941171;28;20023;-84
2022/11/15 08:00:35;;;;;;;2.90;1.88;;;11.70;99.90;;;;;;4931359;28;20054;-84
2022/11/15 08:03:09;;;;;;;2.97;2.03;;;11.70;99.90;;;;;;4957697;28;20702;-84
2022/11/15 08:05:34;;;;;;;3.05;2.25;;;11.70;99.90;;;;;;4956313;28;20390;-84
2022/11/15 08:08:00;;;;;;;3.15;2.22;;;11.80;99.90;;;;;;4956745;28;20051;-84
2022/11/15 08:10:26;;;;;;;3.45;2.10;;;11.80;99.90;;;;;;4944932;28;20039;-84
2022/11/15 08:13:05;;;;;;;2.70;1.70;;;11.90;99.90;;;;;;4945458;28;20054;-84
2022/11/15 08:15:31;;;;;;;3.95;2.05;;;11.90;99.90;;;;;;4947238;28;20105;-84
2022/11/15 08:17:58;;;;;;;3.05;2.00;;;12.00;99.90;;;;;;4955969;28;20055;-84
2022/11/15 08:20:24;;;;;;;2.45;2.10;;;12.00;99.90;;;;;;4953355;28;20034;-85
2022/11/15 08:22:49;;;;;;;2.83;1.80;;;12.10;99.90;;;;;;4983387;28;20038;-84
2022/11/15 08:25:15;;;;;;;3.50;2.00;;;12.10;99.90;;;;;;4949154;28;20030;-84
2022/11/15 08:27:41;;;;;;;1.77;1.45;;;12.20;99.90;;;;;;4952279;28;20039;-84
2022/11/15 08:30:07;;;;;;;2.58;1.67;;;12.30;99.90;;;;;;4981374;28;20027;-84
2022/11/15 08:32:32;;;;;;;2.85;1.70;;;12.40;99.90;;;;;;4944223;28;20054;-84
2022/11/15 08:34:58;;;;;;;2.08;1.58;;;12.40;99.90;;;;;;4933635;28;20058;-84
2022/11/15 08:37:23;;;;;;;3.03;1.50;;;12.50;99.90;;;;;;4947846;28;20035;-84
2022/11/15 08:39:49;;;;;;;2.50;1.17;;;12.60;99.90;;;;;;4978976;28;20035;-84
2022/11/15 08:42:16;;;;;;;2.67;1.80;;;12.60;99.90;;;;;;4957428;28;20074;-84
2022/11/15 08:44:41;;;;;;;1.67;1.35;;;12.60;99.90;;;;;;4944507;28;20062;-84
2022/11/15 08:47:07;;;;;;;1.50;1.40;;;12.80;99.90;;;;;;4941195;28;20043;-84
2022/11/15 08:49:40;;;;;;;3.03;1.98;;;12.80;99.90;;;;;;4948460;28;20027;-84
2022/11/15 08:52:06;;;;;;;3.55;1.20;;;12.70;99.90;;;;;;4934217;28;20026;-84
2022/11/15 08:54:31;;;;;;;4.15;1.30;;;12.80;99.90;;;;;;4967613;28;20422;-84
2022/11/15 08:56:57;;;;;;;5.97;1.30;;;12.80;99.90;;;;;;4945612;28;20514;-84
2022/11/15 08:59:23;;;;;;;2.55;1.50;;;12.70;99.90;;;;;;4935518;28;20031;-83
2022/11/15 09:01:48;;;;;;;2.28;1.45;;;12.80;99.90;;;;;;4950350;28;20129;-84
2022/11/15 09:04:14;;;;;;;1.98;1.13;;;12.80;99.90;;;;;;4953806;28;20030;-84
2022/11/15 09:06:39;;;;;;;1.50;1.40;;;12.80;99.90;;;;;;4936434;28;20042;-86
2022/11/15 09:09:05;;;;;;;2.58;1.15;;;12.70;99.90;;;;;;4947108;28;20117;-86
2022/11/15 09:11:30;;;;;;;2.50;1.30;;;12.90;99.90;;;;;;4949647;28;20102;-86
2022/11/15 09:13:56;;;;;;;2.63;0.80;;;13.00;99.90;;;;;;4931430;28;20074;-85
2022/11/15 09:16:22;;;;;;;2.45;1.27;;;13.00;99.90;;;;;;4927386;28;20117;-86
2022/11/15 09:18:47;;;;;;;2.33;1.05;;;13.10;99.90;;;;;;4965723;28;20126;-86
2022/11/15 09:21:13;;;;;;;2.22;1.20;;;13.10;99.90;;;;;;4945802;28;20042;-86
2022/11/15 09:23:39;;;;;;;1.95;1.45;;;13.10;99.90;;;;;;4953326;28;20085;-86
2022/11/15 09:26:05;;;;;;;2.47;1.10;;;13.10;99.90;;;;;;4963541;28;20109;-86
2022/11/15 09:28:31;;;;;;;1.88;1.15;;;13.30;99.90;;;;;;4964125;28;20131;-86
2022/11/15 09:30:58;;;;;;;1.38;0.90;;;13.20;99.90;;;;;;4965314;28;20039;-86
2022/11/15 09:33:24;;;;;;;1.08;0.68;;;13.20;99.90;;;;;;4967385;28;20050;-85
2022/11/15 09:35:49;;;;;;;1.67;0.73;;;13.30;99.90;;;;;;4969921;28;20034;-86
2022/11/15 09:38:15;;;;;;;1.35;0.63;;;13.50;99.90;;;;;;4936116;28;20038;-86
2022/11/15 09:40:40;;;;;;;1.13;0.85;;;13.40;99.90;;;;;;4953376;28;20118;-86
2022/11/15 09:43:25;;;;;;;1.77;1.00;;;13.50;99.90;;;;;;4919050;28;20150;-85
2022/11/15 09:45:54;;;;;;;1.40;0.82;;;13.50;99.90;;;;;;4971829;28;20039;-86
2022/11/15 09:48:41;;;;;;;1.85;0.65;;;13.80;99.90;;;;;;4968205;28;20066;-86
2022/11/15 09:51:08;;;;;;;1.00;0.80;;;13.80;99.90;;;;;;4965708;28;20442;-86
2022/11/15 09:53:59;;;;;;;5.45;1.05;;;13.90;99.90;;;;;;4954432;28;20455;-85
2022/11/15 09:56:30;;;;;;;2.60;1.00;;;14.00;99.90;;;;;;4958601;28;20039;-85
2022/11/15 09:59:21;;;;;;;2.75;0.60;;;14.20;99.90;;;;;;4962403;28;20133;-85
2022/11/15 10:02:02;;;;;;;1.83;0.77;;;14.10;99.90;;;;;;4936025;28;20094;-85
2022/11/15 10:04:27;;;;;;;2.25;0.68;;;14.20;99.90;;;;;;4951446;28;20462;-86
2022/11/15 10:07:18;;;;;;;0.82;0.68;;;14.20;99.90;;;;;;4954548;28;20126;-86
2022/11/15 10:09:57;;;;;;;4.55;1.02;;;14.30;99.90;;;;;;4950613;28;20043;-85
2022/11/15 10:12:22;;;;;;;1.35;0.60;;;14.30;99.90;;;;;;4929300;28;20055;-85
2022/11/15 10:14:49;;;;;;;5.10;1.00;;;14.40;99.90;;;;;;4935904;28;20042;-85
2022/11/15 10:17:17;;;;;;;2.53;0.88;;;14.30;99.90;;;;;;4968575;28;20034;-85
2022/11/15 10:20:07;;;;;;;1.27;0.75;;;14.40;99.90;;;;;;4968386;28;20031;-86
2022/11/15 10:22:39;;;;;;;1.00;0.68;;;14.50;99.90;;;;;;4949987;28;20042;-85
2022/11/15 10:25:24;;;;;;;1.15;0.80;;;14.50;99.90;;;;;;4984999;28;20034;-86
2022/11/15 10:28:20;;;;;;;1.63;0.90;;;14.60;99.90;;;;;;4951578;28;20031;-86
2022/11/15 10:30:57;;;;;;;1.58;0.70;;;14.50;99.90;;;;;;4946416;28;20059;-86
2022/11/15 10:33:36;;;;;;;1.92;0.77;;;14.50;99.90;;;;;;4952469;28;20105;-86
2022/11/15 10:36:13;;;;;;;1.13;0.63;;;14.70;99.90;;;;;;4940600;28;20049;-85
2022/11/15 10:38:52;;;;;;;1.80;0.68;;;14.70;99.90;;;;;;4952826;28;20031;-85
2022/11/15 10:41:27;;;;;;;4.78;2.22;;;14.50;99.90;;;;;;4959467;28;20131;-86
2022/11/15 10:44:13;;;;;;;1.27;0.90;;;14.70;99.90;;;;;;4967269;28;20030;-85
2022/11/15 10:46:39;;;;;;;0.82;0.60;;;14.80;99.90;;;;;;4968987;28;20030;-86
2022/11/15 10:49:24;;;;;;;2.80;0.82;;;14.80;99.90;;;;;;4950251;28;20066;-86
2022/11/15 10:51:55;;;;;;;3.35;0.85;;;15.00;99.90;;;;;;4950642;28;20678;-85
2022/11/15 10:54:32;;;;;;;8.50;2.83;;;15.00;99.90;;;;;;4967683;28;20046;-86
2022/11/15 10:56:59;;;;;;;1.92;0.80;;;15.00;99.90;;;;;;4944440;28;20038;-85
2022/11/15 10:59:31;;;;;;;1.65;0.98;;;15.00;99.90;;;;;;4937408;28;20093;-85
2022/11/15 11:01:57;;;;;;;0.93;0.50;;;15.10;99.90;;;;;;4968645;28;20383;-86
2022/11/15 11:04:23;;;;;;;1.05;0.70;;;15.30;99.90;;;;;;4946579;28;20030;-86
2022/11/15 11:06:51;;;;;;;3.90;1.05;;;15.40;99.90;;;;;;4949777;28;20045;-85
2022/11/15 11:09:35;;;;;;;1.20;0.68;;;15.50;99.90;;;;;;4952037;28;20039;-85
2022/11/15 11:12:01;;;;;;;0.85;0.57;;;15.70;99.90;;;;;;4935387;28;20035;-86
2022/11/15 11:14:31;;;;;;;1.05;0.45;;;15.80;99.90;;;;;;4932269;28;20101;-86
2022/11/15 11:17:06;;;;;;;0.75;0.73;;;15.90;99.90;;;;;;4976486;28;20023;-86
2022/11/15 11:19:59;;;;;;;1.70;0.93;;;15.80;99.90;;;;;;4944128;28;20463;-85
2022/11/15 11:22:48;;;;;;;1.05;0.65;;;15.70;99.90;;;;;;4963313;28;20779;-85
2022/11/15 11:25:22;;;;;;;1.38;0.60;;;15.90;99.90;;;;;;4977325;28;20081;-86
2022/11/15 11:27:54;;;;;;;0.75;0.52;;;16.20;99.90;;;;;;4950219;28;20045;-85
2022/11/15 11:30:23;;;;;;;0.60;0.60;;;16.20;99.90;;;;;;4940143;28;20031;-86
2022/11/15 11:33:04;;;;;;;2.15;0.63;;;16.20;99.90;;;;;;4979492;28;20495;-86
2022/11/15 11:35:41;;;;;;;0.55;0.40;;;16.10;99.90;;;;;;4930020;28;20027;-86
2022/11/15 11:38:34;;;;;;;3.15;0.68;;;15.90;99.90;;;;;;4947422;28;20026;-86
2022/11/15 11:41:10;;;;;;;1.25;0.60;;;16.10;99.90;;;;;;4967673;28;20035;-85
2022/11/15 11:44:08;;;;;;;2.53;0.50;;;16.40;99.90;;;;;;4919698;28;20034;-85
2022/11/15 11:46:43;;;;;;;1.77;0.80;;;16.40;99.90;;;;;;4940860;28;20129;-86
2022/11/15 11:49:10;;;;;;;0.43;0.40;;;16.50;99.90;;;;;;4932836;28;20035;-86
2022/11/15 11:51:51;;;;;;;2.50;0.60;;;16.50;99.90;;;;;;4947142;28;20117;-86
2022/11/15 11:54:20;;;;;;;0.95;0.50;;;16.40;99.90;;;;;;4942254;28;20145;-86
2022/11/15 11:56:45;;;;;;;1.48;0.50;;;16.40;99.90;;;;;;4948247;28;20042;-87
2022/11/15 11:59:23;;;;;;;1.40;0.65;;;16.70;99.80;;;;;;4951272;28;20039;-87
2022/11/15 12:01:48;;;;;;;12.55;2.35;;;16.60;99.30;;;;;;4935343;28;20031;-87
2022/11/15 12:04:36;;;;;;;1.05;0.60;;;16.60;98.60;;;;;;4948075;28;20042;-87
2022/11/15 12:07:09;;;;;;;3.55;0.40;;;16.50;98.60;;;;;;4951393;28;20042;-86
2022/11/15 12:10:15;;;;;;;1.02;0.47;;;16.70;99.20;;;;;;4933157;28;20334;-87
2022/11/15 12:12:55;;;;;;;2.33;0.70;;;16.80;97.60;;;;;;4950772;28;20516;-86
2022/11/15 12:15:55;;;;;;;2.60;0.50;;;16.70;96.90;;;;;;4962126;28;20037;-87
2022/11/15 12:18:21;;;;;;;1.00;0.43;;;16.80;97.30;;;;;;4920190;28;20057;-87
2022/11/15 12:20:53;;;;;;;1.10;0.47;;;16.50;97.40;;;;;;4979718;28;20486;-88
2022/11/15 12:23:30;;;;;;;3.55;0.55;;;16.60;98.00;;;;;;4922189;28;20030;-86
2022/11/15 12:26:04;;;;;;;3.13;0.50;;;16.80;96.50;;;;;;4621517;28;9999844;-87
2022/11/15 12:28:49;;;;;;;1.17;0.30;;;16.60;97.30;;;;;;4953988;28;20058;-87
2022/11/15 12:31:33;;;;;;;1.38;0.55;;;16.60;97.20;;;;;;4918507;28;20085;-86
2022/11/15 12:34:18;;;;;;;2.92;0.60;;;16.50;96.50;;;;;;4950841;28;20547;-86
2022/11/15 12:36:44;;;;;;;3.25;0.93;;;16.60;96.80;;;;;;4959503;28;20039;-84
2022/11/15 12:39:14;;;;;;;1.23;0.43;;;16.50;97.30;;;;;;4947930;28;20614;-86
2022/11/15 12:41:40;;;;;;;1.80;0.50;;;16.40;95.60;;;;;;4965540;28;20439;-85
2022/11/15 12:44:30;;;;;;;2.75;0.40;;;16.50;94.20;;;;;;4919484;28;20037;-86
2022/11/15 12:46:56;;;;;;;3.63;0.40;;;16.60;94.30;;;;;;4951493;28;20046;-85
2022/11/15 12:49:27;;;;;;;2.38;0.50;;;16.50;94.80;;;;;;4949435;28;20049;-86
2022/11/15 12:51:58;;;;;;;2.03;0.60;;;16.50;94.60;;;;;;4959856;28;20034;-86
2022/11/15 12:54:24;;;;;;;1.13;0.63;;;16.70;95.90;;;;;;4948866;28;20089;-85
2022/11/15 12:57:07;;;;;;;1.60;0.50;;;16.40;97.20;;;;;;4947466;28;20635;-86
2022/11/15 12:59:52;;;;;;;0.88;0.50;;;16.50;94.90;;;;;;4966308;28;20081;-86
2022/11/15 13:02:18;;;;;;;2.97;0.63;;;16.60;96.40;;;;;;4965669;28;20410;-86
2022/11/15 13:04:44;;;;;;;1.23;0.50;;;16.70;95.60;;;;;;4932281;28;20031;-85
2022/11/15 13:07:10;;;;;;;2.22;0.57;;;16.80;95.40;;;;;;4931426;28;20501;-86